| time (UTC) | temp F | wind direction | speed MPH | gust MPH | rain 1hr in | rain 24hr in | rain mn in | humidity % | barometer mb |
| 20260510230046 | 65 | 0 | 0.0 | 1.0 | 0.05 | 0.05 | 0.05 | 85 | 1014.2 |
| 20260510224600 | 66 | 0 | 0.0 | 0.0 | 0.02 | 0.07 | 0.02 | 82 | 1013.9 |
| 20260510223100 | 68 | 0 | 0.0 | 1.0 | 0.00 | 0.05 | 0.00 | 77 | 1013.3 |
| 20260510221549 | 69 | 0 | 0.0 | 0.0 | 0.00 | 0.05 | 0.00 | 71 | 1013.3 |
| 20260510220047 | 69 | 0 | 0.0 | 2.0 | 0.00 | 0.05 | 0.00 | 71 | 1013.3 |
| 20260510214549 | 69 | 128 | 0.0 | 1.0 | 0.00 | 0.13 | 0.00 | 71 | 1013.4 |
| 20260510213053 | 69 | 0 | 0.0 | 2.0 | 0.00 | 0.13 | 0.00 | 71 | 1012.8 |
| 20260510211549 | 69 | 100 | 1.0 | 3.0 | 0.00 | 0.13 | 0.00 | 70 | 1012.4 |
| 20260510210043 | 70 | 174 | 1.0 | 5.0 | 0.00 | 0.13 | 0.00 | 69 | 1012.3 |
| 20260510204550 | 72 | 126 | 1.0 | 4.0 | 0.00 | 0.13 | 0.00 | 66 | 1012.3 |
| 20260510203046 | 75 | 99 | 2.0 | 5.0 | 0.00 | 0.13 | 0.00 | 60 | 1012.1 |
| 20260510201547 | 77 | 217 | 0.0 | 4.0 | 0.00 | 0.13 | 0.00 | 54 | 1012.1 |
| 20260510200053 | 77 | 0 | 1.0 | 4.0 | 0.00 | 0.13 | 0.00 | 51 | 1012.0 |
| 20260510194555 | 77 | 345 | 1.0 | 5.0 | 0.00 | 0.13 | 0.00 | 51 | 1012.2 |
| 20260510193043 | 76 | 331 | 0.0 | 3.0 | 0.00 | 0.13 | 0.00 | 54 | 1012.2 |
| 20260510191546 | 74 | 271 | 0.0 | 1.0 | 0.00 | 0.13 | 0.00 | 60 | 1012.5 |
| 20260510190048 | 74 | 0 | 0.0 | 2.0 | 0.00 | 0.13 | 0.00 | 60 | 1012.6 |
| 20260510184551 | 76 | 0 | 1.0 | 5.0 | 0.00 | 0.17 | 0.00 | 57 | 1012.4 |
| 20260510183047 | 77 | 202 | 1.0 | 4.0 | 0.00 | 0.17 | 0.00 | 57 | 1012.6 |
| 20260510181546 | 77 | 0 | 0.0 | 3.0 | 0.00 | 0.17 | 0.00 | 59 | 1012.4 |
| 20260510180048 | 76 | 328 | 0.0 | 3.0 | 0.00 | 0.17 | 0.00 | 60 | 1012.6 |
| 20260510174553 | 74 | 8 | 0.0 | 5.0 | 0.00 | 0.18 | 0.00 | 63 | 1012.5 |
| 20260510173053 | 74 | 0 | 0.0 | 4.0 | 0.00 | 0.18 | 0.00 | 63 | 1012.5 |
| 20260510171546 | 73 | 182 | 1.0 | 4.0 | 0.00 | 0.18 | 0.00 | 64 | 1012.5 |
| 20260510170047 | 73 | 104 | 0.0 | 2.0 | 0.00 | 0.18 | 0.00 | 68 | 1012.5 |
| 20260510164553 | 73 | 103 | 0.0 | 1.0 | 0.00 | 0.20 | 0.00 | 67 | 1012.6 |
| 20260510163042 | 71 | 117 | 0.0 | 3.0 | 0.00 | 0.20 | 0.00 | 70 | 1012.8 |
| 20260510161540 | 69 | 210 | 0.0 | 3.0 | 0.00 | 0.20 | 0.00 | 70 | 1013.0 |
| 20260510160046 | 67 | 0 | 0.0 | 3.0 | 0.00 | 0.20 | 0.00 | 79 | 1013.4 |
| 20260510154544 | 66 | 0 | 0.0 | 2.0 | 0.00 | 0.20 | 0.00 | 81 | 1013.4 |
| 20260510153047 | 64 | 0 | 0.0 | 1.0 | 0.00 | 0.20 | 0.00 | 87 | 1013.5 |
| 20260510151556 | 61 | 252 | 1.0 | 2.0 | 0.00 | 0.20 | 0.00 | 92 | 1013.5 |
| 20260510150119 | 59 | 0 | 0.0 | 2.0 | 0.00 | 0.20 | 0.00 | 93 | 1013.5 |
| 20260510144620 | 58 | 315 | 0.0 | 1.0 | 0.00 | 0.20 | 0.00 | 95 | 1013.5 |
| 20260510143056 | 57 | 0 | 0.0 | 2.0 | 0.00 | 0.20 | 0.00 | 94 | 1013.5 |
| 20260510141549 | 56 | 0 | 0.0 | 1.0 | 0.00 | 0.20 | 0.00 | 94 | 1013.4 |
| 20260510140049 | 56 | 0 | 0.0 | 1.0 | 0.00 | 0.20 | 0.00 | 94 | 1013.3 |
| 20260510134602 | 55 | 0 | 0.0 | 0.0 | 0.00 | 0.20 | 0.00 | 94 | 1013.3 |
| 20260510133052 | 55 | 0 | 0.0 | 0.0 | 0.00 | 0.20 | 0.00 | 94 | 1013.3 |
| 20260510131552 | 55 | 0 | 0.0 | 1.0 | 0.00 | 0.20 | 0.00 | 94 | 1013.2 |
| 20260510130052 | 55 | 0 | 0.0 | 1.0 | 0.00 | 0.20 | 0.00 | 95 | 1012.9 |
| 20260510124550 | 54 | 158 | 0.0 | 1.0 | 0.00 | 0.20 | 0.00 | 95 | 1012.7 |
| 20260510123052 | 54 | 0 | 0.0 | 0.0 | 0.00 | 0.20 | 0.00 | 94 | 1012.7 |
| 20260510121544 | 54 | 0 | 0.0 | 0.0 | 0.00 | 0.20 | 0.00 | 95 | 1012.6 |
| 20260510120048 | 53 | 122 | 0.0 | 1.0 | 0.00 | 0.20 | 0.00 | 94 | 1012.6 |
| 20260510114607 | 53 | 0 | 0.0 | 1.0 | 0.00 | 0.20 | 0.00 | 95 | 1012.3 |
| 20260510113054 | 53 | 0 | 0.0 | 1.0 | 0.00 | 0.20 | 0.00 | 94 | 1012.2 |
| 20260510111551 | 52 | 249 | 0.0 | 0.0 | 0.00 | 0.20 | 0.00 | 94 | 1012.1 |
| 20260510110045 | 52 | 149 | 0.0 | 2.0 | 0.00 | 0.20 | 0.00 | 94 | 1011.6 |
| 20260510104555 | 52 | 0 | 0.0 | 2.0 | 0.00 | 0.20 | 0.00 | 94 | 1011.8 |
| 20260510103048 | 52 | 0 | 0.0 | 0.0 | 0.00 | 0.20 | 0.00 | 94 | 1012.0 |
| 20260510101548 | 51 | 0 | 0.0 | 0.0 | 0.00 | 0.20 | 0.00 | 94 | 1011.7 |
| 20260510100059 | 51 | 0 | 0.0 | 0.0 | 0.00 | 0.20 | 0.00 | 94 | 1011.7 |
| 20260510094555 | 51 | 0 | 0.0 | 1.0 | 0.00 | 0.20 | 0.00 | 94 | 1011.7 |
| 20260510093050 | 51 | 0 | 0.0 | 3.0 | 0.00 | 0.20 | 0.00 | 94 | 1011.8 |
| 20260510091551 | 50 | 32 | 0.0 | 5.0 | 0.00 | 0.20 | 0.00 | 94 | 1011.8 |
| 20260510090046 | 50 | 0 | 0.0 | 0.0 | 0.00 | 0.20 | 0.00 | 94 | 1011.4 |
| 20260510084545 | 50 | 0 | 0.0 | 0.0 | 0.00 | 0.20 | 0.00 | 94 | 1011.3 |
| 20260510083047 | 49 | 0 | 0.0 | 0.0 | 0.00 | 0.20 | 0.00 | 94 | 1011.3 |
| 20260510081549 | 49 | 0 | 0.0 | 0.0 | 0.00 | 0.20 | 0.00 | 94 | 1011.4 |
| 20260510080041 | 48 | 0 | 0.0 | 0.0 | 0.00 | 0.20 | 0.00 | 94 | 1011.2 |
| 20260510074559 | 48 | 0 | 0.0 | 0.0 | 0.00 | 0.20 | 0.00 | 94 | 1011.3 |
| 20260510073052 | 47 | 0 | 0.0 | 1.0 | 0.00 | 0.20 | 0.00 | 94 | 1011.1 |
| 20260510071557 | 46 | 0 | 0.0 | 0.0 | 0.00 | 0.20 | 0.00 | 94 | 1011.0 |
| 20260510070107 | 46 | 0 | 0.0 | 0.0 | 0.00 | 0.20 | 0.00 | 93 | 1010.6 |
| 20260510064558 | 46 | 0 | 0.0 | 0.0 | 0.00 | 0.20 | 0.00 | 93 | 1010.5 |
| 20260510063100 | 46 | 0 | 0.0 | 0.0 | 0.00 | 0.20 | 0.00 | 93 | 1010.6 |
| 20260510061554 | 46 | 0 | 0.0 | 0.0 | 0.00 | 0.20 | 0.00 | 93 | 1010.6 |
| 20260510060051 | 47 | 0 | 0.0 | 0.0 | 0.00 | 0.20 | 0.00 | 93 | 1010.7 |
| 20260510054554 | 47 | 0 | 0.0 | 0.0 | 0.00 | 0.20 | 0.00 | 93 | 1010.9 |
| 20260510053050 | 47 | 0 | 0.0 | 0.0 | 0.00 | 0.20 | 0.00 | 93 | 1011.0 |
| 20260510051546 | 47 | 0 | 0.0 | 0.0 | 0.00 | 0.20 | 0.00 | 93 | 1010.9 |
| 20260510050051 | 47 | 0 | 0.0 | 0.0 | 0.00 | 0.20 | 0.00 | 93 | 1010.9 |
| 20260510044555 | 48 | 0 | 0.0 | 0.0 | 0.00 | 0.20 | 0.00 | 93 | 1011.0 |
| 20260510043046 | 48 | 0 | 0.0 | 0.0 | 0.00 | 0.20 | 0.00 | 93 | 1011.1 |
| 20260510041556 | 49 | 0 | 0.0 | 0.0 | 0.00 | 0.20 | 0.00 | 92 | 1011.2 |
| 20260510040049 | 49 | 0 | 0.0 | 0.0 | 0.00 | 0.20 | 0.00 | 92 | 1011.1 |
| 20260510034549 | 49 | 0 | 0.0 | 0.0 | 0.00 | 0.20 | 0.20 | 93 | 1011.0 |
| 20260510033110 | 49 | 0 | 0.0 | 0.0 | 0.00 | 0.20 | 0.20 | 92 | 1010.7 |
| 20260510031549 | 49 | 0 | 0.0 | 0.0 | 0.00 | 0.20 | 0.20 | 92 | 1010.9 |
| 20260510030051 | 49 | 0 | 0.0 | 0.0 | 0.00 | 0.20 | 0.20 | 92 | 1010.9 |
| 20260510024549 | 49 | 0 | 0.0 | 0.0 | 0.00 | 0.20 | 0.20 | 92 | 1010.7 |
| 20260510023048 | 50 | 0 | 0.0 | 0.0 | 0.00 | 0.20 | 0.20 | 92 | 1010.6 |
| 20260510021543 | 50 | 0 | 0.0 | 0.0 | 0.00 | 0.20 | 0.20 | 92 | 1010.6 |
| 20260510020053 | 50 | 0 | 0.0 | 0.0 | 0.00 | 0.20 | 0.20 | 92 | 1010.8 |
| 20260510014558 | 51 | 0 | 0.0 | 0.0 | 0.00 | 0.20 | 0.20 | 91 | 1010.8 |
| 20260510013051 | 51 | 0 | 0.0 | 0.0 | 0.00 | 0.20 | 0.20 | 91 | 1010.6 |
| 20260510011556 | 52 | 0 | 0.0 | 0.0 | 0.00 | 0.20 | 0.20 | 91 | 1010.4 |
| 20260510004551 | 52 | 0 | 0.0 | 0.0 | 0.00 | 0.20 | 0.20 | 91 | 1010.1 |
| 20260510003100 | 53 | 0 | 0.0 | 0.0 | 0.00 | 0.20 | 0.20 | 90 | 1010.1 |
| 20260510001553 | 54 | 0 | 0.0 | 0.0 | 0.00 | 0.20 | 0.20 | 90 | 1010.0 |
| 20260510000057 | 54 | 0 | 0.0 | 0.0 | 0.00 | 0.20 | 0.20 | 90 | 1009.9 |
| 20260509234604 | 55 | 0 | 0.0 | 0.0 | 0.00 | 0.20 | 0.20 | 90 | 1009.9 |
| 20260509233046 | 55 | 0 | 0.0 | 0.0 | 0.00 | 0.20 | 0.20 | 90 | 1009.7 |
| 20260509231544 | 56 | 0 | 0.0 | 0.0 | 0.00 | 0.20 | 0.20 | 90 | 1009.6 |